createdAt,value
2018-11-25T00:00:16.153Z,99.62
2018-11-25T00:02:44.794Z,99.13
2018-11-25T00:05:13.431Z,99.35
2018-11-25T00:07:42.041Z,99.23
2018-11-25T00:10:10.710Z,99.30
2018-11-25T00:12:40.317Z,98.93
2018-11-25T00:15:09.686Z,98.80
2018-11-25T00:17:38.362Z,98.85
2018-11-25T00:20:10.121Z,98.34
2018-11-25T00:22:39.347Z,99.04
2018-11-25T00:25:10.413Z,99.06
2018-11-25T00:27:39.151Z,99.75
2018-11-25T00:30:14.166Z,100.00
2018-11-25T00:32:42.840Z,100.00
2018-11-25T00:35:12.546Z,99.87
2018-11-25T00:37:47.987Z,100.00
2018-11-25T00:40:17.149Z,100.00
2018-11-25T00:42:46.154Z,100.00
2018-11-25T00:45:18.169Z,100.00
2018-11-25T00:47:46.992Z,100.00
2018-11-25T00:50:15.853Z,100.00
2018-11-25T00:52:45.099Z,100.00
2018-11-25T00:55:14.915Z,99.59
2018-11-25T00:57:43.557Z,99.19
2018-11-25T01:00:16.248Z,98.93
2018-11-25T01:02:45.199Z,98.95
2018-11-25T01:05:14.267Z,99.32
2018-11-25T01:07:42.942Z,99.25
2018-11-25T01:10:14.422Z,99.43
2018-11-25T01:12:43.191Z,99.53
2018-11-25T01:15:12.948Z,99.33
2018-11-25T01:17:41.617Z,99.64
2018-11-25T01:20:11.807Z,99.51
2018-11-25T01:22:40.463Z,99.43
2018-11-25T01:25:10.280Z,99.81
2018-11-25T01:27:39.004Z,99.70
2018-11-25T01:30:14.749Z,99.71
2018-11-25T01:32:43.420Z,99.83
2018-11-25T01:35:12.736Z,99.77
2018-11-25T01:37:41.577Z,99.77
2018-11-25T01:40:12.525Z,99.17
2018-11-25T01:42:41.204Z,98.88
2018-11-25T01:45:13.023Z,98.88
2018-11-25T01:47:41.661Z,98.98
2018-11-25T01:50:11.665Z,98.81
2018-11-25T01:52:40.398Z,99.11
2018-11-25T01:55:10.406Z,98.68
2018-11-25T01:57:39.095Z,98.45
2018-11-25T02:00:18.895Z,98.91
2018-11-25T02:02:47.598Z,98.59
2018-11-25T02:05:16.344Z,98.80
2018-11-25T02:07:44.987Z,98.84
2018-11-25T02:10:18.452Z,98.70
2018-11-25T02:12:47.213Z,98.87
2018-11-25T02:15:16.521Z,99.20
2018-11-25T02:17:45.193Z,99.54
2018-11-25T02:20:18.163Z,99.93
2018-11-25T02:22:46.824Z,99.90
2018-11-25T02:25:15.534Z,100.00
2018-11-25T02:27:44.205Z,100.00
2018-11-25T02:30:14.394Z,100.00
2018-11-25T02:32:43.183Z,100.00
2018-11-25T02:35:12.704Z,100.00
2018-11-25T02:37:41.367Z,100.00
2018-11-25T02:40:11.365Z,100.00
2018-11-25T02:42:40.101Z,100.00
2018-11-25T02:45:12.839Z,100.00
2018-11-25T02:47:41.510Z,100.00
2018-11-25T02:50:24.968Z,100.00
2018-11-25T02:52:54.184Z,100.00
2018-11-25T02:55:24.063Z,100.00
2018-11-25T02:57:52.797Z,100.00
2018-11-25T03:00:21.520Z,100.00
2018-11-25T03:02:50.180Z,100.00
2018-11-25T03:05:18.909Z,100.00
2018-11-25T03:07:47.582Z,100.00
2018-11-25T03:10:16.318Z,100.00
2018-11-25T03:12:45.036Z,100.00
2018-11-25T03:15:15.644Z,99.96
2018-11-25T03:17:44.369Z,100.00
2018-11-25T03:20:15.063Z,100.00
2018-11-25T03:22:43.781Z,100.00
2018-11-25T03:25:13.738Z,99.82
2018-11-25T03:27:42.406Z,99.32
2018-11-25T03:30:21.621Z,99.44
2018-11-25T03:32:52.340Z,100.00
2018-11-25T03:35:21.105Z,100.00
2018-11-25T03:37:49.897Z,100.00
2018-11-25T03:40:19.456Z,100.00
2018-11-25T03:42:48.193Z,100.00
2018-11-25T03:45:17.863Z,100.00
2018-11-25T03:47:46.837Z,100.00
2018-11-25T03:50:15.902Z,100.00
2018-11-25T03:52:44.573Z,100.00
2018-11-25T03:55:14.987Z,100.00
2018-11-25T03:57:43.636Z,100.00
2018-11-25T04:00:13.710Z,100.00
2018-11-25T04:02:42.385Z,100.00
2018-11-25T04:05:12.279Z,100.00
2018-11-25T04:07:40.917Z,100.00
2018-11-25T04:10:11.703Z,100.00
2018-11-25T04:12:40.371Z,100.00
2018-11-25T04:15:14.522Z,100.00
2018-11-25T04:17:43.284Z,100.00
2018-11-25T04:20:14.162Z,100.00
2018-11-25T04:22:42.956Z,100.00
2018-11-25T04:25:12.197Z,100.00
2018-11-25T04:27:40.865Z,100.00
2018-11-25T04:30:24.354Z,100.00
2018-11-25T04:32:53.029Z,100.00
2018-11-25T04:35:21.699Z,100.00
2018-11-25T04:37:50.336Z,100.00
2018-11-25T04:40:19.333Z,100.00
2018-11-25T04:42:48.080Z,100.00
2018-11-25T04:45:17.591Z,100.00
2018-11-25T04:47:46.875Z,100.00
2018-11-25T04:50:18.373Z,100.00
2018-11-25T04:52:47.094Z,100.00
2018-11-25T04:55:16.105Z,100.00
2018-11-25T04:57:49.640Z,100.00
2018-11-25T05:00:18.591Z,100.00
2018-11-25T05:02:47.341Z,100.00
2018-11-25T05:05:16.375Z,100.00
2018-11-25T05:07:45.067Z,100.00
2018-11-25T05:10:14.467Z,100.00
2018-11-25T05:12:43.160Z,100.00
2018-11-25T05:15:14.839Z,100.00
2018-11-25T05:17:43.515Z,100.00
2018-11-25T05:20:12.989Z,100.00
2018-11-25T05:22:41.643Z,100.00
2018-11-25T05:25:12.388Z,100.00
2018-11-25T05:27:41.091Z,100.00
2018-11-25T05:30:12.922Z,100.00
2018-11-25T05:32:41.890Z,100.00
2018-11-25T05:35:11.850Z,100.00
2018-11-25T05:37:40.509Z,100.00
2018-11-25T05:40:11.722Z,100.00
2018-11-25T05:42:40.373Z,99.92
2018-11-25T05:45:10.923Z,99.63
2018-11-25T05:47:39.650Z,98.99
2018-11-25T05:50:11.629Z,99.03
2018-11-25T05:52:40.319Z,98.54
2018-11-25T05:55:10.060Z,98.32
2018-11-25T05:57:38.770Z,97.77
2018-11-25T06:00:15.569Z,97.07
2018-11-25T06:02:44.234Z,97.33
2018-11-25T06:05:13.024Z,97.69
2018-11-25T06:07:41.699Z,97.63
2018-11-25T06:10:12.512Z,97.21
2018-11-25T06:12:41.287Z,97.04
2018-11-25T06:15:12.785Z,96.62
2018-11-25T06:17:41.410Z,95.99
2018-11-25T06:20:17.681Z,96.11
2018-11-25T06:22:46.704Z,96.18
2018-11-25T06:25:18.343Z,96.29
2018-11-25T06:27:46.951Z,95.59
2018-11-25T06:30:17.438Z,95.08
2018-11-25T06:32:46.194Z,94.77
2018-11-25T06:35:15.897Z,93.37
2018-11-25T06:37:44.578Z,91.87
2018-11-25T06:40:14.286Z,89.71
2018-11-25T06:42:42.978Z,88.11
2018-11-25T06:45:17.958Z,87.89
2018-11-25T06:47:46.603Z,87.43
2018-11-25T06:50:15.297Z,86.97
2018-11-25T06:52:43.933Z,86.48
2018-11-25T06:55:13.202Z,85.87
2018-11-25T06:57:41.814Z,85.67
2018-11-25T07:00:25.960Z,85.81
2018-11-25T07:02:55.110Z,85.74
2018-11-25T07:05:23.835Z,86.62
2018-11-25T07:07:52.521Z,87.75
2018-11-25T07:10:22.178Z,88.34
2018-11-25T07:12:52.762Z,89.64
2018-11-25T07:15:21.427Z,90.12
2018-11-25T07:17:50.068Z,91.21
2018-11-25T07:20:19.220Z,91.88
2018-11-25T07:22:47.918Z,93.42
2018-11-25T07:25:23.299Z,94.32
2018-11-25T07:27:52.329Z,94.69
2018-11-25T07:30:24.977Z,94.35
2018-11-25T07:32:53.672Z,94.28
2018-11-25T07:35:23.048Z,94.24
2018-11-25T07:37:51.714Z,93.31
2018-11-25T07:40:21.104Z,94.19
2018-11-25T07:42:49.991Z,95.19
2018-11-25T07:45:20.639Z,96.32
2018-11-25T07:47:49.339Z,96.87
2018-11-25T07:50:18.029Z,96.60
2018-11-25T07:52:47.522Z,97.51
2018-11-25T07:55:20.190Z,97.55
2018-11-25T07:57:49.522Z,98.44
2018-11-25T08:00:19.973Z,98.19
2018-11-25T08:02:48.649Z,98.14
2018-11-25T08:05:20.408Z,97.06
2018-11-25T08:07:49.070Z,96.92
2018-11-25T08:10:17.711Z,96.93
2018-11-25T08:12:46.743Z,96.03
2018-11-25T08:15:17.110Z,96.12
2018-11-25T08:17:45.820Z,96.17
2018-11-25T08:20:15.434Z,95.19
2018-11-25T08:22:44.182Z,95.21
2018-11-25T08:25:17.745Z,95.38
2018-11-25T08:27:46.368Z,95.80
2018-11-25T08:30:18.143Z,95.55
2018-11-25T08:32:46.921Z,94.88
2018-11-25T08:35:16.293Z,94.86
2018-11-25T08:37:45.011Z,94.84
2018-11-25T08:40:17.691Z,94.23
2018-11-25T08:42:46.379Z,93.35
2018-11-25T08:45:15.592Z,93.25
2018-11-25T08:47:44.428Z,93.96
2018-11-25T08:50:16.896Z,93.72
2018-11-25T08:52:46.422Z,93.05
2018-11-25T08:55:16.198Z,92.99
2018-11-25T08:57:44.972Z,93.22
2018-11-25T09:00:16.563Z,93.16
2018-11-25T09:02:45.255Z,92.54
2018-11-25T09:05:16.315Z,92.97
2018-11-25T09:07:45.116Z,93.05
2018-11-25T09:10:17.621Z,92.95
2018-11-25T09:12:55.179Z,92.86
2018-11-25T09:15:18.313Z,92.01
2018-11-25T09:17:47.007Z,90.83
2018-11-25T09:20:16.842Z,90.37
2018-11-25T09:22:45.507Z,90.06
2018-11-25T09:25:18.420Z,89.97
2018-11-25T09:27:47.098Z,88.58
2018-11-25T09:30:18.175Z,88.03
2018-11-25T09:32:46.844Z,84.80
2018-11-25T09:35:15.862Z,83.70
2018-11-25T09:37:44.474Z,81.46
2018-11-25T09:40:14.429Z,78.09
2018-11-25T09:42:43.134Z,76.66
2018-11-25T09:45:13.889Z,75.51
2018-11-25T09:47:42.894Z,75.18
2018-11-25T09:50:14.490Z,74.33
2018-11-25T09:52:43.224Z,73.73
2018-11-25T09:55:16.058Z,74.68
2018-11-25T09:57:46.861Z,76.40
2018-11-25T10:00:18.552Z,77.52
2018-11-25T10:02:47.888Z,77.34
2018-11-25T10:05:17.146Z,78.31
2018-11-25T10:07:45.845Z,78.20
2018-11-25T10:10:16.577Z,77.86
2018-11-25T10:12:45.258Z,78.69
2018-11-25T10:15:15.075Z,78.16
2018-11-25T10:17:44.010Z,78.40
2018-11-25T10:20:19.675Z,77.93
2018-11-25T10:22:48.410Z,77.76
2018-11-25T10:25:17.507Z,78.25
2018-11-25T10:27:46.250Z,78.29
2018-11-25T10:30:18.693Z,78.52
2018-11-25T10:32:48.581Z,78.76
2018-11-25T10:35:17.799Z,79.47
2018-11-25T10:37:46.790Z,79.78
2018-11-25T10:40:18.292Z,79.92
2018-11-25T10:42:47.014Z,79.39
2018-11-25T10:45:19.591Z,79.57
2018-11-25T10:47:48.375Z,79.72
2018-11-25T10:50:19.085Z,80.97
2018-11-25T10:52:48.007Z,81.36
2018-11-25T10:55:17.526Z,81.14
2018-11-25T10:57:47.095Z,80.66
2018-11-25T11:00:22.197Z,80.66
2018-11-25T11:02:56.243Z,80.70
2018-11-25T11:05:30.159Z,79.80
2018-11-25T11:07:59.131Z,78.34
2018-11-25T11:10:27.825Z,79.63
2018-11-25T11:12:56.477Z,79.20
2018-11-25T11:15:25.223Z,78.81
2018-11-25T11:17:54.059Z,78.99
2018-11-25T11:20:22.785Z,78.92
2018-11-25T11:22:51.470Z,78.48
2018-11-25T11:25:20.210Z,77.75
2018-11-25T11:27:48.844Z,78.62
2018-11-25T11:30:17.548Z,78.49
2018-11-25T11:32:47.612Z,77.13
2018-11-25T11:35:16.278Z,77.58
2018-11-25T11:37:44.899Z,76.44
2018-11-25T11:40:14.544Z,76.74
2018-11-25T11:42:43.240Z,77.30
2018-11-25T11:45:13.137Z,77.68
2018-11-25T11:47:42.296Z,77.02
2018-11-25T11:50:19.235Z,75.43
2018-11-25T11:52:47.865Z,75.82
2018-11-25T11:55:17.608Z,75.97
2018-11-25T11:57:46.848Z,75.85
2018-11-25T12:00:30.607Z,76.14
2018-11-25T12:02:59.617Z,74.32
2018-11-25T12:05:28.309Z,75.53
2018-11-25T12:07:56.992Z,74.61
2018-11-25T12:10:25.685Z,73.84
2018-11-25T12:12:54.704Z,73.58
2018-11-25T12:15:30.841Z,72.84
2018-11-25T12:17:55.445Z,73.56
2018-11-25T12:20:24.952Z,73.13
2018-11-25T12:22:54.407Z,72.80
2018-11-25T12:25:23.140Z,73.69
2018-11-25T12:27:51.824Z,72.20
2018-11-25T12:30:20.483Z,72.23
2018-11-25T12:32:50.198Z,72.45
2018-11-25T12:35:19.040Z,72.25
2018-11-25T12:37:48.080Z,72.57
2018-11-25T12:40:20.994Z,73.16
2018-11-25T12:42:56.161Z,72.20
2018-11-25T12:45:25.037Z,72.35
2018-11-25T12:47:53.682Z,71.72
2018-11-25T12:50:23.531Z,72.01
2018-11-25T12:52:52.249Z,72.48
2018-11-25T12:55:22.099Z,71.46
2018-11-25T12:57:50.721Z,70.94
2018-11-25T13:00:33.455Z,70.87
2018-11-25T13:03:02.142Z,70.50
2018-11-25T13:05:30.813Z,69.47
2018-11-25T13:07:59.490Z,69.72
2018-11-25T13:10:28.143Z,66.96
2018-11-25T13:12:56.879Z,67.52
2018-11-25T13:15:25.604Z,66.95
2018-11-25T13:17:54.299Z,66.39
2018-11-25T13:20:23.242Z,65.95
2018-11-25T13:22:51.892Z,65.40
2018-11-25T13:25:20.587Z,65.37
2018-11-25T13:27:50.203Z,65.58
2018-11-25T13:30:24.098Z,65.85
2018-11-25T13:32:55.030Z,65.62
2018-11-25T13:35:24.257Z,66.26
2018-11-25T13:37:52.937Z,67.05
2018-11-25T13:40:21.640Z,67.21
2018-11-25T13:42:50.658Z,67.65
2018-11-25T13:45:19.419Z,68.33
2018-11-25T13:47:48.066Z,67.96
2018-11-25T13:50:16.718Z,68.36
2018-11-25T13:52:45.421Z,69.13
2018-11-25T13:55:19.428Z,69.47
2018-11-25T13:57:48.113Z,69.60
2018-11-25T14:00:25.647Z,70.17
2018-11-25T14:02:54.785Z,69.94
2018-11-25T14:05:23.473Z,69.96
2018-11-25T14:07:52.151Z,70.81
2018-11-25T14:10:23.913Z,70.50
2018-11-25T14:12:52.574Z,71.03
2018-11-25T14:15:21.274Z,71.92
2018-11-25T14:17:49.962Z,72.09
2018-11-25T14:20:18.624Z,71.89
2018-11-25T14:22:47.265Z,71.37
2018-11-25T14:25:17.391Z,72.02
2018-11-25T14:27:46.889Z,72.21
2018-11-25T14:30:21.138Z,73.05
2018-11-25T14:32:49.760Z,73.31
2018-11-25T14:35:18.510Z,73.51
2018-11-25T14:37:47.203Z,73.99
2018-11-25T14:40:17.392Z,74.44
2018-11-25T14:42:46.121Z,74.35
2018-11-25T14:45:15.967Z,74.91
2018-11-25T14:47:44.609Z,75.92
2018-11-25T14:50:15.630Z,76.29
2018-11-25T14:52:45.603Z,76.46
2018-11-25T14:55:15.014Z,76.54
2018-11-25T14:57:43.809Z,77.65
2018-11-25T15:00:27.192Z,77.90
2018-11-25T15:03:04.210Z,78.19
2018-11-25T15:05:37.580Z,78.21
2018-11-25T15:08:07.294Z,78.92
2018-11-25T15:10:36.026Z,79.05
2018-11-25T15:13:05.167Z,78.86
2018-11-25T15:15:33.844Z,79.58
2018-11-25T15:18:02.466Z,79.80
2018-11-25T15:20:31.151Z,79.80
2018-11-25T15:23:02.479Z,80.25
2018-11-25T15:25:34.826Z,80.29
2018-11-25T15:28:03.448Z,80.18
2018-11-25T15:30:32.056Z,80.94
2018-11-25T15:33:00.710Z,81.16
2018-11-25T15:35:29.451Z,81.39
2018-11-25T15:37:58.443Z,81.32
2018-11-25T15:40:30.298Z,82.06
2018-11-25T15:42:59.194Z,82.53
2018-11-25T15:45:27.911Z,83.06
2018-11-25T15:48:08.767Z,83.65
2018-11-25T15:50:37.478Z,83.35
2018-11-25T15:53:07.824Z,84.74
2018-11-25T15:55:37.215Z,85.50
2018-11-25T15:58:06.325Z,85.59
2018-11-25T16:00:35.011Z,86.63
2018-11-25T16:03:03.771Z,86.56
2018-11-25T16:05:33.568Z,86.59
2018-11-25T16:08:02.602Z,86.94
2018-11-25T16:10:31.868Z,87.26
2018-11-25T16:13:00.527Z,88.15
2018-11-25T16:15:29.905Z,88.13
2018-11-25T16:17:58.645Z,88.48
2018-11-25T16:20:28.322Z,88.52
2018-11-25T16:23:01.432Z,89.00
2018-11-25T16:25:48.197Z,90.88
2018-11-25T16:28:21.209Z,91.92
2018-11-25T16:30:50.149Z,91.75
2018-11-25T16:33:18.842Z,92.53
2018-11-25T16:35:55.395Z,92.90
2018-11-25T16:38:24.114Z,93.10
2018-11-25T16:40:52.746Z,93.03
2018-11-25T16:43:22.327Z,92.13
2018-11-25T16:45:51.049Z,92.00
2018-11-25T16:48:19.700Z,91.64
2018-11-25T16:50:48.301Z,91.50
2018-11-25T16:53:17.124Z,90.87
2018-11-25T16:55:45.832Z,90.57
2018-11-25T16:58:14.570Z,91.20
2018-11-25T17:00:43.242Z,90.90
2018-11-25T17:03:11.887Z,90.53
2018-11-25T17:05:43.184Z,91.11
2018-11-25T17:08:17.121Z,90.73
2018-11-25T17:10:46.680Z,90.25
2018-11-25T17:13:15.354Z,89.63
2018-11-25T17:15:44.416Z,89.44
2018-11-25T17:18:13.061Z,89.82
2018-11-25T17:20:41.849Z,89.27
2018-11-25T17:23:10.487Z,87.73
2018-11-25T17:25:39.126Z,86.97
2018-11-25T17:28:08.144Z,86.39
2018-11-25T17:30:36.795Z,86.46
2018-11-25T17:33:05.821Z,85.75
2018-11-25T17:35:34.428Z,85.83
2018-11-25T17:38:03.099Z,85.91
2018-11-25T17:40:31.831Z,86.09
2018-11-25T17:43:00.470Z,85.86
2018-11-25T17:45:29.503Z,85.26
2018-11-25T17:47:58.133Z,84.86
2018-11-25T17:50:28.866Z,85.19
2018-11-25T17:52:57.501Z,85.67
2018-11-25T17:55:27.874Z,85.07
2018-11-25T17:57:56.875Z,84.69
2018-11-25T18:00:34.429Z,84.83
2018-11-25T18:03:03.771Z,84.49
2018-11-25T18:05:38.712Z,84.40
2018-11-25T18:08:01.151Z,84.37
2018-11-25T18:10:29.796Z,83.98
2018-11-25T18:12:58.511Z,84.08
2018-11-25T18:15:27.199Z,84.46
2018-11-25T18:18:06.263Z,83.20
2018-11-25T18:20:46.054Z,83.26
2018-11-25T18:23:14.682Z,83.73
2018-11-25T18:25:43.485Z,83.80
2018-11-25T18:28:12.873Z,83.56
2018-11-25T18:30:42.653Z,83.35
2018-11-25T18:33:11.411Z,83.33
2018-11-25T18:35:40.098Z,83.29
2018-11-25T18:38:09.062Z,83.12
2018-11-25T18:40:37.683Z,82.98
2018-11-25T18:43:07.207Z,82.90
2018-11-25T18:45:35.897Z,82.86
2018-11-25T18:48:04.703Z,82.69
2018-11-25T18:50:34.182Z,83.05
2018-11-25T18:53:02.836Z,82.59
2018-11-25T18:55:30.226Z,81.92
2018-11-25T18:57:59.585Z,81.78
2018-11-25T19:01:06.963Z,81.83
2018-11-25T19:03:35.875Z,82.16
2018-11-25T19:06:04.626Z,82.17
2018-11-25T19:08:33.273Z,81.89
2018-11-25T19:11:02.379Z,81.84
2018-11-25T19:13:31.336Z,82.29
2018-11-25T19:15:59.979Z,82.28
2018-11-25T19:18:28.625Z,82.51
2018-11-25T19:20:57.325Z,82.96
2018-11-25T19:23:25.973Z,82.73
2018-11-25T19:25:54.621Z,82.95
2018-11-25T19:28:23.171Z,83.16
2018-11-25T19:30:52.265Z,82.86
2018-11-25T19:33:20.978Z,82.40
2018-11-25T19:35:49.646Z,81.94
2018-11-25T19:38:18.321Z,82.44
2018-11-25T19:40:47.009Z,81.95
2018-11-25T19:43:15.780Z,81.58
2018-11-25T19:45:44.528Z,81.56
2018-11-25T19:48:13.597Z,82.03
2018-11-25T19:50:42.262Z,81.94
2018-11-25T19:53:11.588Z,82.21
2018-11-25T19:55:41.208Z,82.35
2018-11-25T19:58:09.847Z,82.25
2018-11-25T20:00:38.665Z,82.38
2018-11-25T20:03:07.830Z,82.48
2018-11-25T20:05:37.524Z,82.43
2018-11-25T20:08:06.623Z,83.03
2018-11-25T20:10:35.276Z,83.67
2018-11-25T20:13:03.954Z,83.76
2018-11-25T20:15:32.607Z,83.94
2018-11-25T20:18:01.335Z,84.45
2018-11-25T20:20:29.994Z,84.35
2018-11-25T20:22:58.670Z,84.38
2018-11-25T20:25:27.319Z,84.23
2018-11-25T20:27:57.694Z,84.83
2018-11-25T20:30:28.282Z,85.39
2018-11-25T20:33:02.009Z,85.64
2018-11-25T20:35:30.807Z,86.00
2018-11-25T20:38:04.561Z,85.95
2018-11-25T20:40:33.363Z,86.29
2018-11-25T20:43:02.116Z,86.41
2018-11-25T20:45:38.972Z,86.63
2018-11-25T20:48:04.837Z,86.76
2018-11-25T20:50:33.585Z,87.14
2018-11-25T20:53:07.468Z,87.37
2018-11-25T20:55:36.596Z,88.21
2018-11-25T20:58:06.382Z,88.22
2018-11-25T21:00:35.075Z,88.66
2018-11-25T21:03:03.719Z,88.94
2018-11-25T21:05:32.375Z,89.08
2018-11-25T21:08:00.998Z,89.18
2018-11-25T21:10:29.637Z,89.52
2018-11-25T21:12:58.247Z,89.98
2018-11-25T21:15:26.876Z,90.16
2018-11-25T21:17:56.034Z,90.84
2018-11-25T21:20:25.887Z,91.02
2018-11-25T21:22:54.601Z,91.40
2018-11-25T21:25:24.667Z,91.37
2018-11-25T21:27:53.359Z,92.04
2018-11-25T21:30:24.260Z,92.11
2018-11-25T21:32:55.203Z,92.63
2018-11-25T21:35:23.881Z,92.56
2018-11-25T21:37:52.502Z,92.65
2018-11-25T21:40:22.528Z,92.69
2018-11-25T21:42:51.726Z,93.36
2018-11-25T21:45:21.093Z,93.26
2018-11-25T21:47:49.983Z,93.59
2018-11-25T21:50:24.685Z,93.93
2018-11-25T21:52:53.341Z,93.89
2018-11-25T21:55:22.243Z,94.45
2018-11-25T21:57:50.835Z,94.92
2018-11-25T22:00:22.235Z,95.40
2018-11-25T22:02:50.970Z,95.16
2018-11-25T22:05:20.118Z,95.35
2018-11-25T22:07:48.655Z,95.41
2018-11-25T22:10:18.531Z,95.33
2018-11-25T22:12:47.496Z,95.41
2018-11-25T22:15:18.099Z,95.85
2018-11-25T22:17:46.823Z,96.10
2018-11-25T22:20:16.118Z,96.38
2018-11-25T22:22:44.834Z,96.89
2018-11-25T22:25:14.543Z,96.72
2018-11-25T22:27:43.338Z,96.54
2018-11-25T22:30:22.026Z,96.20
2018-11-25T22:32:50.834Z,96.62
2018-11-25T22:35:20.727Z,96.68
2018-11-25T22:37:49.449Z,96.77
2018-11-25T22:40:18.894Z,97.44
2018-11-25T22:42:48.444Z,98.09
2018-11-25T22:45:18.077Z,98.21
2018-11-25T22:47:46.728Z,98.90
2018-11-25T22:50:16.619Z,99.38
2018-11-25T22:52:45.433Z,99.70
2018-11-25T22:55:15.885Z,99.95
2018-11-25T22:57:44.623Z,100.00
2018-11-25T23:00:23.757Z,100.00
2018-11-25T23:02:52.434Z,100.00
2018-11-25T23:05:32.602Z,100.00
2018-11-25T23:08:01.315Z,100.00
2018-11-25T23:10:29.994Z,100.00
2018-11-25T23:12:58.679Z,100.00
2018-11-25T23:15:27.448Z,100.00
2018-11-25T23:17:56.125Z,100.00
2018-11-25T23:20:24.755Z,100.00
2018-11-25T23:22:53.355Z,100.00
2018-11-25T23:25:22.105Z,100.00
2018-11-25T23:27:50.804Z,100.00
2018-11-25T23:30:19.628Z,100.00
2018-11-25T23:32:48.454Z,100.00
2018-11-25T23:35:19.702Z,100.00
2018-11-25T23:37:48.460Z,100.00
2018-11-25T23:40:17.204Z,100.00
2018-11-25T23:42:46.574Z,100.00
2018-11-25T23:45:16.576Z,100.00
2018-11-25T23:47:46.126Z,100.00
2018-11-25T23:50:15.426Z,100.00
2018-11-25T23:52:45.897Z,100.00
2018-11-25T23:55:15.149Z,100.00
2018-11-25T23:57:43.938Z,100.00
